sensor_id;sensor_type;location;lat;lon;timestamp;pressure;altitude;pressure_sealevel;temperature;humidity
46129;BME280;31860;45.186;5.790;2023-05-10T00:00:15;99121.19;;;19.49;100.00
46129;BME280;31860;45.186;5.790;2023-05-10T00:02:40;99117.69;;;19.48;100.00
46129;BME280;31860;45.186;5.790;2023-05-10T00:05:06;99119.44;;;19.49;100.00
46129;BME280;31860;45.186;5.790;2023-05-10T00:07:31;99095.56;;;19.49;100.00
46129;BME280;31860;45.186;5.790;2023-05-10T00:09:57;99079.69;;;19.49;100.00
46129;BME280;31860;45.186;5.790;2023-05-10T00:12:22;99061.22;;;19.46;100.00
46129;BME280;31860;45.186;5.790;2023-05-10T00:14:47;99045.53;;;19.42;100.00
46129;BME280;31860;45.186;5.790;2023-05-10T00:17:13;99042.97;;;19.39;100.00
46129;BME280;31860;45.186;5.790;2023-05-10T00:19:39;99047.38;;;19.40;100.00
46129;BME280;31860;45.186;5.790;2023-05-10T00:22:04;99041.25;;;19.38;100.00
46129;BME280;31860;45.186;5.790;2023-05-10T00:24:30;99047.47;;;19.37;100.00
46129;BME280;31860;45.186;5.790;2023-05-10T00:26:55;99059.81;;;19.38;100.00
46129;BME280;31860;45.186;5.790;2023-05-10T00:29:20;99067.84;;;19.35;100.00
46129;BME280;31860;45.186;5.790;2023-05-10T00:31:46;99066.94;;;19.36;100.00
46129;BME280;31860;45.186;5.790;2023-05-10T00:34:11;99074.00;;;19.35;100.00
46129;BME280;31860;45.186;5.790;2023-05-10T00:36:36;99076.72;;;19.34;100.00
46129;BME280;31860;45.186;5.790;2023-05-10T00:39:02;99081.16;;;19.33;100.00
46129;BME280;31860;45.186;5.790;2023-05-10T00:41:29;99085.69;;;19.30;100.00
46129;BME280;31860;45.186;5.790;2023-05-10T00:43:54;99090.97;;;19.30;100.00
46129;BME280;31860;45.186;5.790;2023-05-10T00:46:20;99093.63;;;19.30;100.00
46129;BME280;31860;45.186;5.790;2023-05-10T00:48:45;99090.09;;;19.29;100.00
46129;BME280;31860;45.186;5.790;2023-05-10T00:51:10;99096.28;;;19.30;100.00
46129;BME280;31860;45.186;5.790;2023-05-10T00:53:36;99092.75;;;19.29;100.00
46129;BME280;31860;45.186;5.790;2023-05-10T00:56:01;99096.28;;;19.30;100.00
46129;BME280;31860;45.186;5.790;2023-05-10T00:58:28;99090.97;;;19.30;100.00
46129;BME280;31860;45.186;5.790;2023-05-10T01:00:56;99090.16;;;19.28;100.00
46129;BME280;31860;45.186;5.790;2023-05-10T01:03:22;99091.03;;;19.28;100.00
46129;BME280;31860;45.186;5.790;2023-05-10T01:05:47;99084.13;;;19.24;100.00
46129;BME280;31860;45.186;5.790;2023-05-10T01:08:13;99086.03;;;19.21;100.00
46129;BME280;31860;45.186;5.790;2023-05-10T01:10:39;99087.84;;;19.19;100.00
46129;BME280;31860;45.186;5.790;2023-05-10T01:13:04;99092.28;;;19.18;100.00
46129;BME280;31860;45.186;5.790;2023-05-10T01:15:30;99082.66;;;19.16;100.00
46129;BME280;31860;45.186;5.790;2023-05-10T01:17:56;99081.75;;;19.17;100.00
46129;BME280;31860;45.186;5.790;2023-05-10T01:20:21;99080.94;;;19.15;100.00
46129;BME280;31860;45.186;5.790;2023-05-10T01:33:47;99066.13;;;19.09;100.00
46129;BME280;31860;45.186;5.790;2023-05-10T01:38:47;99070.56;;;19.09;100.00
46129;BME280;31860;45.186;5.790;2023-05-10T01:41:26;99073.28;;;19.07;100.00
46129;BME280;31860;45.186;5.790;2023-05-10T01:44:16;99075.97;;;19.06;100.00
46129;BME280;31860;45.186;5.790;2023-05-10T01:46:45;99074.22;;;19.05;100.00
46129;BME280;31860;45.186;5.790;2023-05-10T01:49:21;99068.94;;;19.05;100.00
46129;BME280;31860;45.186;5.790;2023-05-10T01:51:51;99066.34;;;19.03;100.00
46129;BME280;31860;45.186;5.790;2023-05-10T01:54:21;99062.00;;;19.02;100.00
46129;BME280;31860;45.186;5.790;2023-05-10T01:56:52;99067.22;;;19.04;100.00
46129;BME280;31860;45.186;5.790;2023-05-10T01:59:21;99068.13;;;19.03;100.00
46129;BME280;31860;45.186;5.790;2023-05-10T02:01:48;99080.53;;;19.02;100.00
46129;BME280;31860;45.186;5.790;2023-05-10T02:04:16;99072.59;;;19.02;100.00
46129;BME280;31860;45.186;5.790;2023-05-10T02:06:43;99089.38;;;19.01;100.00
46129;BME280;31860;45.186;5.790;2023-05-10T02:09:10;99088.50;;;19.01;100.00
46129;BME280;31860;45.186;5.790;2023-05-10T02:11:38;99085.84;;;19.01;100.00
46129;BME280;31860;45.186;5.790;2023-05-10T02:14:06;99081.50;;;19.00;100.00
46129;BME280;31860;45.186;5.790;2023-05-10T02:16:35;99072.66;;;18.99;100.00
46129;BME280;31860;45.186;5.790;2023-05-10T02:19:01;99075.31;;;18.99;100.00
46129;BME280;31860;45.186;5.790;2023-05-10T02:21:28;99079.78;;;18.99;100.00
46129;BME280;31860;45.186;5.790;2023-05-10T02:23:54;99076.31;;;18.97;100.00
46129;BME280;31860;45.186;5.790;2023-05-10T02:26:22;99080.75;;;18.96;100.00
46129;BME280;31860;45.186;5.790;2023-05-10T02:28:49;99079.00;;;18.95;100.00
46129;BME280;31860;45.186;5.790;2023-05-10T02:31:15;99071.91;;;18.96;100.00
46129;BME280;31860;45.186;5.790;2023-05-10T02:33:41;99078.97;;;18.97;100.00
46129;BME280;31860;45.186;5.790;2023-05-10T02:36:08;99060.44;;;18.97;100.00
46129;BME280;31860;45.186;5.790;2023-05-10T02:38:36;99061.34;;;18.96;100.00
46129;BME280;31860;45.186;5.790;2023-05-10T02:41:02;99055.22;;;18.93;100.00
46129;BME280;31860;45.186;5.790;2023-05-10T02:43:30;99053.50;;;18.92;100.00
46129;BME280;31860;45.186;5.790;2023-05-10T02:45:57;99062.34;;;18.91;100.00
46129;BME280;31860;45.186;5.790;2023-05-10T02:48:22;99061.50;;;18.91;100.00
46129;BME280;31860;45.186;5.790;2023-05-10T02:50:50;99058.97;;;18.88;100.00
46129;BME280;31860;45.186;5.790;2023-05-10T02:53:23;99066.81;;;18.91;100.00
46129;BME280;31860;45.186;5.790;2023-05-10T02:55:52;99069.47;;;18.91;100.00
46129;BME280;31860;45.186;5.790;2023-05-10T02:58:18;99053.50;;;18.92;100.00
46129;BME280;31860;45.186;5.790;2023-05-10T03:00:46;99057.06;;;18.91;100.00
46129;BME280;31860;45.186;5.790;2023-05-10T03:03:12;99051.78;;;18.91;100.00
46129;BME280;31860;45.186;5.790;2023-05-10T03:05:37;99043.00;;;18.89;100.00
46129;BME280;31860;45.186;5.790;2023-05-10T03:08:03;99048.31;;;18.89;100.00
46129;BME280;31860;45.186;5.790;2023-05-10T03:10:30;99042.13;;;18.90;100.00
46129;BME280;31860;45.186;5.790;2023-05-10T03:13:13;99045.63;;;18.91;100.00
46129;BME280;31860;45.186;5.790;2023-05-10T03:15:51;99050.00;;;18.92;100.00
46129;BME280;31860;45.186;5.790;2023-05-10T03:18:23;99056.16;;;18.92;100.00
46129;BME280;31860;45.186;5.790;2023-05-10T03:20:57;99050.06;;;18.90;100.00
46129;BME280;31860;45.186;5.790;2023-05-10T03:25:59;99053.59;;;18.89;100.00
46129;BME280;31860;45.186;5.790;2023-05-10T03:28:25;99055.41;;;18.89;100.00
46129;BME280;31860;45.186;5.790;2023-05-10T03:30:53;99050.06;;;18.90;100.00
46129;BME280;31860;45.186;5.790;2023-05-10T03:33:19;99057.06;;;18.91;100.00
46129;BME280;31860;45.186;5.790;2023-05-10T03:35:44;99058.00;;;18.90;100.00
46129;BME280;31860;45.186;5.790;2023-05-10T03:38:11;99058.88;;;18.91;100.00
46129;BME280;31860;45.186;5.790;2023-05-10T03:40:37;99058.91;;;18.89;100.00
46129;BME280;31860;45.186;5.790;2023-05-10T03:43:02;99053.72;;;18.86;100.00
46129;BME280;31860;45.186;5.790;2023-05-10T03:45:27;99046.75;;;18.84;100.00
46129;BME280;31860;45.186;5.790;2023-05-10T03:47:53;99045.03;;;18.83;100.00
46129;BME280;31860;45.186;5.790;2023-05-10T03:50:19;99045.91;;;18.83;100.00
46129;BME280;31860;45.186;5.790;2023-05-10T03:52:44;99047.75;;;18.81;100.00
46129;BME280;31860;45.186;5.790;2023-05-10T03:55:10;99050.47;;;18.78;100.00
46129;BME280;31860;45.186;5.790;2023-05-10T03:57:35;99048.66;;;18.80;100.00
46129;BME280;31860;45.186;5.790;2023-05-10T04:00:01;99041.56;;;18.81;100.00
46129;BME280;31860;45.186;5.790;2023-05-10T04:02:27;99054.81;;;18.81;100.00
46129;BME280;31860;45.186;5.790;2023-05-10T04:04:53;99050.41;;;18.80;100.00
46129;BME280;31860;45.186;5.790;2023-05-10T04:07:18;99062.81;;;18.79;100.00
46129;BME280;31860;45.186;5.790;2023-05-10T04:09:43;99065.47;;;18.79;100.00
46129;BME280;31860;45.186;5.790;2023-05-10T04:12:09;99072.53;;;18.79;100.00
46129;BME280;31860;45.186;5.790;2023-05-10T04:14:34;99068.09;;;18.79;100.00
46129;BME280;31860;45.186;5.790;2023-05-10T04:17:00;99068.09;;;18.79;100.00
46129;BME280;31860;45.186;5.790;2023-05-10T04:19:32;99073.41;;;18.79;100.00
46129;BME280;31860;45.186;5.790;2023-05-10T04:21:58;99074.28;;;18.78;100.00
46129;BME280;31860;45.186;5.790;2023-05-10T04:24:23;99068.25;;;18.75;100.00
46129;BME280;31860;45.186;5.790;2023-05-10T04:26:49;99071.78;;;18.75;100.00
46129;BME280;31860;45.186;5.790;2023-05-10T04:29:15;99082.34;;;18.75;100.00
46129;BME280;31860;45.186;5.790;2023-05-10T04:31:40;99079.66;;;18.77;100.00
46129;BME280;31860;45.186;5.790;2023-05-10T04:34:05;99077.94;;;18.76;100.00
46129;BME280;31860;45.186;5.790;2023-05-10T04:36:31;99077.88;;;18.77;100.00
46129;BME280;31860;45.186;5.790;2023-05-10T04:38:58;99083.22;;;18.76;100.00
46129;BME280;31860;45.186;5.790;2023-05-10T04:41:23;99083.22;;;18.76;100.00
46129;BME280;31860;45.186;5.790;2023-05-10T04:43:50;99087.72;;;18.74;100.00
46129;BME280;31860;45.186;5.790;2023-05-10T04:46:15;99090.28;;;18.75;100.00
46129;BME280;31860;45.186;5.790;2023-05-10T04:48:40;99090.22;;;18.77;100.00
46129;BME280;31860;45.186;5.790;2023-05-10T04:51:06;99086.72;;;18.76;100.00
46129;BME280;31860;45.186;5.790;2023-05-10T04:53:31;99092.81;;;18.78;100.00
46129;BME280;31860;45.186;5.790;2023-05-10T04:55:57;99094.59;;;18.78;100.00
46129;BME280;31860;45.186;5.790;2023-05-10T04:58:22;99099.09;;;18.76;100.00
46129;BME280;31860;45.186;5.790;2023-05-10T05:00:48;99098.22;;;18.75;100.00
46129;BME280;31860;45.186;5.790;2023-05-10T05:03:13;99090.28;;;18.75;100.00
46129;BME280;31860;45.186;5.790;2023-05-10T05:05:38;99101.78;;;18.74;100.00
46129;BME280;31860;45.186;5.790;2023-05-10T05:08:05;99100.13;;;18.72;100.00
46129;BME280;31860;45.186;5.790;2023-05-10T05:10:30;99088.72;;;18.70;100.00
46129;BME280;31860;45.186;5.790;2023-05-10T05:12:55;99092.28;;;18.69;100.00
46129;BME280;31860;45.186;5.790;2023-05-10T05:15:21;99090.56;;;18.68;100.00
46129;BME280;31860;45.186;5.790;2023-05-10T05:17:46;99087.97;;;18.66;100.00
46129;BME280;31860;45.186;5.790;2023-05-10T05:20:12;99096.81;;;18.65;100.00
46129;BME280;31860;45.186;5.790;2023-05-10T05:22:38;99099.47;;;18.65;100.00
46129;BME280;31860;45.186;5.790;2023-05-10T05:25:04;99095.94;;;18.65;100.00
46129;BME280;31860;45.186;5.790;2023-05-10T05:27:29;99099.50;;;18.64;100.00
46129;BME280;31860;45.186;5.790;2023-05-10T05:29:56;99104.81;;;18.64;100.00
46129;BME280;31860;45.186;5.790;2023-05-10T05:32:22;99105.69;;;18.63;100.00
46129;BME280;31860;45.186;5.790;2023-05-10T05:34:48;99110.16;;;18.62;100.00
46129;BME280;31860;45.186;5.790;2023-05-10T05:37:14;99111.94;;;18.62;100.00
46129;BME280;31860;45.186;5.790;2023-05-10T05:39:40;99104.91;;;18.61;100.00
46129;BME280;31860;45.186;5.790;2023-05-10T05:42:05;99109.34;;;18.60;100.00
46129;BME280;31860;45.186;5.790;2023-05-10T05:44:30;99108.47;;;18.60;100.00
46129;BME280;31860;45.186;5.790;2023-05-10T05:46:56;99113.75;;;18.60;100.00
46129;BME280;31860;45.186;5.790;2023-05-10T05:49:21;99109.34;;;18.60;100.00
46129;BME280;31860;45.186;5.790;2023-05-10T05:51:46;99117.22;;;18.62;100.00
46129;BME280;31860;45.186;5.790;2023-05-10T05:54:14;99114.56;;;18.62;100.00
46129;BME280;31860;45.186;5.790;2023-05-10T05:56:39;99114.63;;;18.60;100.00
46129;BME280;31860;45.186;5.790;2023-05-10T05:59:05;99126.03;;;18.62;100.00
46129;BME280;31860;45.186;5.790;2023-05-10T06:01:30;99117.16;;;18.63;100.00
46129;BME280;31860;45.186;5.790;2023-05-10T06:03:55;99113.66;;;18.63;100.00
46129;BME280;31860;45.186;5.790;2023-05-10T06:06:21;99118.09;;;18.62;100.00
46129;BME280;31860;45.186;5.790;2023-05-10T06:08:46;99118.09;;;18.62;100.00
46129;BME280;31860;45.186;5.790;2023-05-10T06:11:11;99115.44;;;18.62;100.00
46129;BME280;31860;45.186;5.790;2023-05-10T06:13:36;99124.22;;;18.63;100.00
46129;BME280;31860;45.186;5.790;2023-05-10T06:16:02;99125.22;;;18.60;100.00
46129;BME280;31860;45.186;5.790;2023-05-10T06:18:28;99122.63;;;18.59;100.00
46129;BME280;31860;45.186;5.790;2023-05-10T06:20:53;99124.41;;;18.58;100.00
46129;BME280;31860;45.186;5.790;2023-05-10T06:23:18;99136.69;;;18.59;100.00
46129;BME280;31860;45.186;5.790;2023-05-10T06:25:44;99142.97;;;18.57;100.00
46129;BME280;31860;45.186;5.790;2023-05-10T06:28:09;99146.47;;;18.57;100.00
46129;BME280;31860;45.186;5.790;2023-05-10T06:30:36;99142.09;;;18.56;100.00
46129;BME280;31860;45.186;5.790;2023-05-10T06:33:01;99147.44;;;18.55;100.00
46129;BME280;31860;45.186;5.790;2023-05-10T06:35:28;99140.34;;;18.57;100.00
46129;BME280;31860;45.186;5.790;2023-05-10T06:37:53;99139.47;;;18.56;100.00
46129;BME280;31860;45.186;5.790;2023-05-10T06:40:19;99148.34;;;18.54;100.00
46129;BME280;31860;45.186;5.790;2023-05-10T06:42:44;99149.28;;;18.53;100.00
46129;BME280;31860;45.186;5.790;2023-05-10T06:45:11;99146.63;;;18.53;100.00
46129;BME280;31860;45.186;5.790;2023-05-10T06:47:37;99154.63;;;18.51;100.00
46129;BME280;31860;45.186;5.790;2023-05-10T06:50:03;99153.75;;;18.51;100.00
46129;BME280;31860;45.186;5.790;2023-05-10T06:52:28;99160.75;;;18.52;100.00
46129;BME280;31860;45.186;5.790;2023-05-10T06:54:53;99165.28;;;18.48;100.00
46129;BME280;31860;45.186;5.790;2023-05-10T06:57:19;99161.81;;;18.46;100.00
46129;BME280;31860;45.186;5.790;2023-05-10T06:59:45;99163.63;;;18.46;100.00
46129;BME280;31860;45.186;5.790;2023-05-10T07:02:11;99163.63;;;18.46;100.00
46129;BME280;31860;45.186;5.790;2023-05-10T07:04:36;99156.53;;;18.46;100.00
46129;BME280;31860;45.186;5.790;2023-05-10T07:07:01;99161.88;;;18.45;100.00
46129;BME280;31860;45.186;5.790;2023-05-10T07:09:27;99165.34;;;18.47;100.00
46129;BME280;31860;45.186;5.790;2023-05-10T07:11:53;99169.75;;;18.46;100.00
46129;BME280;31860;45.186;5.790;2023-05-10T07:14:18;99175.00;;;18.48;100.00
46129;BME280;31860;45.186;5.790;2023-05-10T07:16:43;99182.09;;;18.47;100.00
46129;BME280;31860;45.186;5.790;2023-05-10T07:19:09;99186.47;;;18.48;100.00
46129;BME280;31860;45.186;5.790;2023-05-10T07:21:36;99184.63;;;18.50;100.00
46129;BME280;31860;45.186;5.790;2023-05-10T07:24:01;99191.66;;;18.51;100.00
46129;BME280;31860;45.186;5.790;2023-05-10T07:26:26;99191.69;;;18.50;100.00
46129;BME280;31860;45.186;5.790;2023-05-10T07:28:52;99193.53;;;18.48;100.00
46129;BME280;31860;45.186;5.790;2023-05-10T07:31:17;99190.94;;;18.46;100.00
46129;BME280;31860;45.186;5.790;2023-05-10T07:33:43;99196.22;;;18.46;100.00
46129;BME280;31860;45.186;5.790;2023-05-10T07:36:08;99200.66;;;18.46;100.00
46129;BME280;31860;45.186;5.790;2023-05-10T07:38:33;99197.97;;;18.47;100.00
46129;BME280;31860;45.186;5.790;2023-05-10T07:40:59;99197.97;;;18.47;100.00
46129;BME280;31860;45.186;5.790;2023-05-10T07:43:24;99205.97;;;18.46;100.00
46129;BME280;31860;45.186;5.790;2023-05-10T07:45:51;99208.53;;;18.47;100.00
46129;BME280;31860;45.186;5.790;2023-05-10T07:48:16;99202.38;;;18.47;100.00
46129;BME280;31860;45.186;5.790;2023-05-10T07:50:41;99208.44;;;18.50;100.00
46129;BME280;31860;45.186;5.790;2023-05-10T07:53:07;99205.78;;;18.50;100.00
46129;BME280;31860;45.186;5.790;2023-05-10T07:55:32;99203.06;;;18.53;100.00
46129;BME280;31860;45.186;5.790;2023-05-10T07:57:58;99207.50;;;18.53;100.00
46129;BME280;31860;45.186;5.790;2023-05-10T08:00:26;99195.97;;;18.54;100.00
46129;BME280;31860;45.186;5.790;2023-05-10T08:02:51;99195.06;;;18.55;100.00
46129;BME280;31860;45.186;5.790;2023-05-10T08:05:16;99195.03;;;18.56;100.00
46129;BME280;31860;45.186;5.790;2023-05-10T08:07:42;99194.97;;;18.58;100.00
46129;BME280;31860;45.186;5.790;2023-05-10T08:10:08;99197.59;;;18.58;100.00
46129;BME280;31860;45.186;5.790;2023-05-10T08:12:34;99199.34;;;18.59;100.00
46129;BME280;31860;45.186;5.790;2023-05-10T08:14:59;99203.72;;;18.60;100.00
46129;BME280;31860;45.186;5.790;2023-05-10T08:17:25;99197.56;;;18.59;100.00
46129;BME280;31860;45.186;5.790;2023-05-10T08:19:50;99201.13;;;18.58;100.00
46129;BME280;31860;45.186;5.790;2023-05-10T08:22:15;99199.31;;;18.60;100.00
46129;BME280;31860;45.186;5.790;2023-05-10T08:24:41;99206.31;;;18.61;100.00
46129;BME280;31860;45.186;5.790;2023-05-10T08:27:08;99201.03;;;18.61;100.00
46129;BME280;31860;45.186;5.790;2023-05-10T08:29:34;99200.06;;;18.64;100.00
46129;BME280;31860;45.186;5.790;2023-05-10T08:31:59;99193.91;;;18.63;100.00
46129;BME280;31860;45.186;5.790;2023-05-10T08:34:26;99200.06;;;18.64;100.00
46129;BME280;31860;45.186;5.790;2023-05-10T08:36:52;99198.28;;;18.64;100.00
46129;BME280;31860;45.186;5.790;2023-05-10T08:39:17;99203.53;;;18.66;97.91
46129;BME280;31860;45.186;5.790;2023-05-10T08:41:44;99204.41;;;18.66;99.59
46129;BME280;31860;45.186;5.790;2023-05-10T08:44:10;99201.66;;;18.69;98.97
46129;BME280;31860;45.186;5.790;2023-05-10T08:46:36;99206.00;;;18.70;97.76
46129;BME280;31860;45.186;5.790;2023-05-10T08:49:06;99207.69;;;18.73;95.80
46129;BME280;31860;45.186;5.790;2023-05-10T08:51:36;99210.28;;;18.74;94.96
46129;BME280;31860;45.186;5.790;2023-05-10T08:54:06;99213.81;;;18.75;97.30
46129;BME280;31860;45.186;5.790;2023-05-10T08:56:31;99214.63;;;18.77;94.84
46129;BME280;31860;45.186;5.790;2023-05-10T08:58:57;99211.03;;;18.79;93.89
46129;BME280;31860;45.186;5.790;2023-05-10T09:01:22;99208.31;;;18.81;94.50
46129;BME280;31860;45.186;5.790;2023-05-10T09:03:49;99212.66;;;18.83;96.37
46129;BME280;31860;45.186;5.790;2023-05-10T09:06:15;99214.31;;;18.86;96.31
46129;BME280;31860;45.186;5.790;2023-05-10T09:08:44;99219.53;;;18.89;91.43
46129;BME280;31860;45.186;5.790;2023-05-10T09:11:11;99221.19;;;18.91;91.46
46129;BME280;31860;45.186;5.790;2023-05-10T09:13:37;99221.13;;;18.95;94.94
46129;BME280;31860;45.186;5.790;2023-05-10T09:16:03;99222.75;;;18.99;95.80
46129;BME280;31860;45.186;5.790;2023-05-10T09:18:29;99219.97;;;19.02;95.03
46129;BME280;31860;45.186;5.790;2023-05-10T09:20:55;99218.16;;;19.04;95.71
46129;BME280;31860;45.186;5.790;2023-05-10T09:23:20;99218.97;;;19.06;98.03
46129;BME280;31860;45.186;5.790;2023-05-10T09:25:45;99224.16;;;19.09;99.71
46129;BME280;31860;45.186;5.790;2023-05-10T09:28:11;99223.19;;;19.11;95.81
46129;BME280;31860;45.186;5.790;2023-05-10T09:30:37;99217.78;;;19.14;95.14
46129;BME280;31860;45.186;5.790;2023-05-10T09:33:02;99221.19;;;19.18;94.22
46129;BME280;31860;45.186;5.790;2023-05-10T09:35:30;99229.03;;;19.21;91.46
46129;BME280;31860;45.186;5.790;2023-05-10T09:37:58;99223.63;;;19.24;90.60
46129;BME280;31860;45.186;5.790;2023-05-10T09:40:25;99223.47;;;19.28;90.31
46129;BME280;31860;45.186;5.790;2023-05-10T09:42:54;99223.34;;;19.33;90.09
46129;BME280;31860;45.186;5.790;2023-05-10T09:45:21;99219.72;;;19.35;88.26
46129;BME280;31860;45.186;5.790;2023-05-10T09:47:46;99213.47;;;19.38;84.94
46129;BME280;31860;45.186;5.790;2023-05-10T09:50:12;99219.56;;;19.40;81.46
46129;BME280;31860;45.186;5.790;2023-05-10T09:52:51;99215.13;;;19.40;78.28
46129;BME280;31860;45.186;5.790;2023-05-10T09:55:22;99210.69;;;19.41;81.20
46129;BME280;31860;45.186;5.790;2023-05-10T09:57:49;99220.31;;;19.43;82.49
46129;BME280;31860;45.186;5.790;2023-05-10T10:00:17;99214.97;;;19.45;81.94
46129;BME280;31860;45.186;5.790;2023-05-10T10:02:43;99216.66;;;19.47;84.06
46129;BME280;31860;45.186;5.790;2023-05-10T10:05:11;99220.22;;;19.46;86.29
46129;BME280;31860;45.186;5.790;2023-05-10T10:07:36;99214.84;;;19.48;87.24
46129;BME280;31860;45.186;5.790;2023-05-10T10:10:02;99216.53;;;19.50;87.11
46129;BME280;31860;45.186;5.790;2023-05-10T10:12:30;99213.00;;;19.50;86.42
46129;BME280;31860;45.186;5.790;2023-05-10T10:14:56;99212.91;;;19.53;87.34
46129;BME280;31860;45.186;5.790;2023-05-10T10:17:21;99211.13;;;19.53;91.38
46129;BME280;31860;45.186;5.790;2023-05-10T10:19:47;99219.03;;;19.55;92.76
46129;BME280;31860;45.186;5.790;2023-05-10T10:22:13;99219.84;;;19.57;92.58
46129;BME280;31860;45.186;5.790;2023-05-10T10:24:39;99217.06;;;19.60;93.14
46129;BME280;31860;45.186;5.790;2023-05-10T10:35:52;99207.06;;;19.68;82.69
46129;BME280;31860;45.186;5.790;2023-05-10T10:38:18;99204.41;;;19.68;81.78
46129;BME280;31860;45.186;5.790;2023-05-10T10:40:44;99205.22;;;19.70;83.19
46129;BME280;31860;45.186;5.790;2023-05-10T10:43:26;99195.44;;;19.72;80.65
46129;BME280;31860;45.186;5.790;2023-05-10T10:46:16;99195.31;;;19.75;78.99
46129;BME280;31860;45.186;5.790;2023-05-10T10:48:49;99198.63;;;19.81;80.52
46129;BME280;31860;45.186;5.790;2023-05-10T10:51:16;99189.72;;;19.82;78.73
46129;BME280;31860;45.186;5.790;2023-05-10T10:53:42;99193.13;;;19.86;77.47
46129;BME280;31860;45.186;5.790;2023-05-10T10:56:10;99192.16;;;19.89;77.63
46129;BME280;31860;45.186;5.790;2023-05-10T10:58:38;99191.06;;;19.94;77.56
46129;BME280;31860;45.186;5.790;2023-05-10T11:01:17;99183.91;;;19.96;73.72
46129;BME280;31860;45.186;5.790;2023-05-10T11:06:40;99185.47;;;20.02;75.51
46129;BME280;31860;45.186;5.790;2023-05-10T11:09:09;99179.06;;;20.07;75.10
46129;BME280;31860;45.186;5.790;2023-05-10T11:11:35;99173.63;;;20.10;73.64
46129;BME280;31860;45.186;5.790;2023-05-10T11:14:07;99178.69;;;20.16;72.56
46129;BME280;31860;45.186;5.790;2023-05-10T11:16:44;99180.22;;;20.23;71.84
46129;BME280;31860;45.186;5.790;2023-05-10T11:19:11;99177.44;;;20.26;70.43
46129;BME280;31860;45.186;5.790;2023-05-10T11:24:27;99165.66;;;20.33;67.31
46129;BME280;31860;45.186;5.790;2023-05-10T11:26:53;99178.94;;;20.33;67.26
46129;BME280;31860;45.186;5.790;2023-05-10T11:29:18;99168.25;;;20.35;66.53
46129;BME280;31860;45.186;5.790;2023-05-10T11:31:44;99170.84;;;20.36;66.77
46129;BME280;31860;45.186;5.790;2023-05-10T11:34:11;99166.34;;;20.38;66.67
46129;BME280;31860;45.186;5.790;2023-05-10T11:36:36;99161.81;;;20.42;66.41
46129;BME280;31860;45.186;5.790;2023-05-10T11:39:03;99158.94;;;20.46;66.71
46129;BME280;31860;45.186;5.790;2023-05-10T11:41:29;99155.09;;;20.53;66.15
46129;BME280;31860;45.186;5.790;2023-05-10T11:43:56;99159.38;;;20.57;65.16
46129;BME280;31860;45.186;5.790;2023-05-10T11:46:24;99157.41;;;20.62;64.41
46129;BME280;31860;45.186;5.790;2023-05-10T11:48:52;99152.81;;;20.66;62.60
46129;BME280;31860;45.186;5.790;2023-05-10T11:51:22;99161.59;;;20.68;60.71
46129;BME280;31860;45.186;5.790;2023-05-10T11:53:49;99158.88;;;20.69;60.45
46129;BME280;31860;45.186;5.790;2023-05-10T11:56:15;99157.03;;;20.71;59.40
46129;BME280;31860;45.186;5.790;2023-05-10T11:58:41;99155.16;;;20.73;60.01
46129;BME280;31860;45.186;5.790;2023-05-10T12:01:07;99149.84;;;20.73;59.53
46129;BME280;31860;45.186;5.790;2023-05-10T12:03:34;99150.78;;;20.72;59.37
46129;BME280;31860;45.186;5.790;2023-05-10T12:06:01;99163.25;;;20.70;58.76
46129;BME280;31860;45.186;5.790;2023-05-10T12:08:28;99168.69;;;20.67;57.94
46129;BME280;31860;45.186;5.790;2023-05-10T12:11:04;99166.28;;;20.61;56.89
46129;BME280;31860;45.186;5.790;2023-05-10T12:13:30;99168.19;;;20.58;58.83
46129;BME280;31860;45.186;5.790;2023-05-10T12:15:58;99163.06;;;20.53;58.34
46129;BME280;31860;45.186;5.790;2023-05-10T12:18:24;99163.28;;;20.49;58.55
46129;BME280;31860;45.186;5.790;2023-05-10T12:20:53;99172.28;;;20.45;56.94
46129;BME280;31860;45.186;5.790;2023-05-10T12:23:19;99168.09;;;20.39;57.52
46129;BME280;31860;45.186;5.790;2023-05-10T12:25:45;99162.09;;;20.34;56.75
46129;BME280;31860;45.186;5.790;2023-05-10T12:28:11;99156.03;;;20.31;57.10
46129;BME280;31860;45.186;5.790;2023-05-10T12:30:37;99165.91;;;20.27;56.71
46129;BME280;31860;45.186;5.790;2023-05-10T12:33:13;99159.06;;;20.22;54.35
46129;BME280;31860;45.186;5.790;2023-05-10T12:35:51;99155.66;;;20.18;54.98
46129;BME280;31860;45.186;5.790;2023-05-10T12:38:37;99154.88;;;20.15;55.29
46129;BME280;31860;45.186;5.790;2023-05-10T12:41:07;99156.88;;;20.10;55.96
46129;BME280;31860;45.186;5.790;2023-05-10T12:43:34;99157.91;;;20.06;56.34
46129;BME280;31860;45.186;5.790;2023-05-10T12:46:13;99152.75;;;20.01;54.75
46129;BME280;31860;45.186;5.790;2023-05-10T12:48:41;99167.88;;;19.99;56.28
46129;BME280;31860;45.186;5.790;2023-05-10T12:51:07;99167.00;;;19.99;56.42
46129;BME280;31860;45.186;5.790;2023-05-10T12:53:38;99175.00;;;19.97;56.87
46129;BME280;31860;45.186;5.790;2023-05-10T12:56:04;99160.91;;;19.97;56.95
46129;BME280;31860;45.186;5.790;2023-05-10T12:58:29;99165.34;;;19.96;56.94
46129;BME280;31860;45.186;5.790;2023-05-10T13:00:55;99179.50;;;19.95;56.80
46129;BME280;31860;45.186;5.790;2023-05-10T13:03:21;99156.59;;;19.94;56.81
46129;BME280;31860;45.186;5.790;2023-05-10T13:05:47;99164.63;;;19.91;56.38
46129;BME280;31860;45.186;5.790;2023-05-10T13:08:12;99166.50;;;19.89;56.38
46129;BME280;31860;45.186;5.790;2023-05-10T13:10:37;99169.19;;;19.88;56.48
46129;BME280;31860;45.186;5.790;2023-05-10T13:13:03;99162.19;;;19.87;56.33
46129;BME280;31860;45.186;5.790;2023-05-10T13:15:28;99172.78;;;19.87;55.55
46129;BME280;31860;45.186;5.790;2023-05-10T13:17:54;99163.88;;;19.88;55.38
46129;BME280;31860;45.186;5.790;2023-05-10T13:20:19;99157.63;;;19.90;56.18